Time;durP1;ratioP1;P1;durP2;ratioP2;P2;SDS_P1;SDS_P2;PMS_P1;PMS_P2;Temp;Humidity;BMP_temperature;BMP_pressure;BME280_temperature;BME280_humidity;BME280_pressure;Samples;Min_cycle;Max_cycle;Signal;HPM_P1;HPM_P2
2021/04/04 00:01:53;;;;;;;1999.90;999.90;;;;;;;6.29;100.00;-18077.72;5057491;28;20196;-30
2021/04/04 00:04:38;;;;;;;1999.90;999.90;;;;;;;6.53;100.00;-18084.03;5057200;28;20589;-30
2021/04/04 00:07:31;;;;;;;1999.90;999.90;;;;;;;6.61;100.00;-18086.03;5058408;28;20240;-29
2021/04/04 00:10:20;;;;;;;1999.90;999.90;;;;;;;6.62;100.00;-18086.31;5059780;28;20200;-30
2021/04/04 00:13:06;;;;;;;1999.90;999.90;;;;;;;6.46;100.00;-18082.16;5058282;28;20381;-30
2021/04/04 00:15:53;;;;;;;1999.90;999.90;;;;;;;6.49;100.00;-18083.09;5062045;28;20197;-30
2021/04/04 00:18:41;;;;;;;1999.90;999.90;;;;;;;6.47;100.00;-18082.56;5062403;28;20236;-30
2021/04/04 00:21:27;;;;;;;1999.90;999.90;;;;;;;6.56;100.00;-18084.97;5066615;28;20196;-30
2021/04/04 00:24:13;;;;;;;1999.90;999.90;;;;;;;6.59;100.00;-18085.66;5056866;28;20346;-29
2021/04/04 00:26:58;;;;;;;1999.90;999.90;;;;;;;6.50;100.00;-18083.38;5057464;28;20200;-30
2021/04/04 00:29:46;;;;;;;1999.90;999.90;;;;;;;6.42;100.00;-18081.09;5056983;28;20196;-30
2021/04/04 00:32:37;;;;;;;1999.90;999.90;;;;;;;5.94;100.00;-18068.34;5056502;28;20631;-29
2021/04/04 00:35:22;;;;;;;1999.90;999.90;;;;;;;6.32;100.00;-18078.41;5056762;28;20201;-29
2021/04/04 00:38:09;;;;;;;1999.90;999.90;;;;;;;6.51;100.00;-18083.63;5056536;28;20216;-30
2021/04/04 00:40:56;;;;;;;1999.90;999.90;;;;;;;6.55;100.00;-18084.72;5056890;28;20640;-30
2021/04/04 00:43:42;;;;;;;1999.90;999.90;;;;;;;6.62;100.00;-18086.31;5057128;28;20588;-30
2021/04/04 00:46:32;;;;;;;1999.90;999.90;;;;;;;6.63;100.00;-18086.59;5057031;28;20311;-29
2021/04/04 00:49:18;;;;;;;1999.90;999.90;;;;;;;6.62;100.00;-18086.31;5060476;28;20608;-29
2021/04/04 00:52:05;;;;;;;1999.90;999.90;;;;;;;6.63;100.00;-18086.72;5059166;28;20274;-30
2021/04/04 00:54:51;;;;;;;1999.90;999.90;;;;;;;6.63;100.00;-18086.59;5056627;28;20220;-30
2021/04/04 00:57:40;;;;;;;1999.90;999.90;;;;;;;6.53;100.00;-18084.16;5057005;28;20220;-29
2021/04/04 01:00:27;;;;;;;1999.90;999.90;;;;;;;6.67;100.00;-18087.66;5056537;28;20289;-30
2021/04/04 01:03:13;;;;;;;1999.90;999.90;;;;;;;6.73;100.00;-18089.28;5056288;28;20188;-30
2021/04/04 01:06:03;;;;;;;1999.90;999.90;;;;;;;6.28;100.00;-18077.34;5056533;28;20212;-29
2021/04/04 01:08:49;;;;;;;1999.90;999.90;;;;;;;6.27;100.00;-18077.19;5058848;28;20248;-30
2021/04/04 01:11:46;;;;;;;1999.90;999.90;;;;;;;6.44;100.00;-18081.75;5061242;28;20224;-30
2021/04/04 01:14:37;;;;;;;1999.90;999.90;;;;;;;6.54;100.00;-18084.44;5064514;28;20196;-30
2021/04/04 01:17:25;;;;;;;1999.90;999.90;;;;;;;6.43;100.00;-18081.34;5043357;28;20201;-30
2021/04/04 01:20:17;;;;;;;1999.90;999.90;;;;;;;6.48;100.00;-18082.69;5065573;28;20263;-30
2021/04/04 01:23:27;;;;;;;1999.90;999.90;;;;;;;6.67;100.00;-18087.78;5059971;28;20594;-29
2021/04/04 01:26:20;;;;;;;1999.90;999.90;;;;;;;6.67;100.00;-18087.78;5018318;28;20248;-30
2021/04/04 01:29:10;;;;;;;1999.90;999.90;;;;;;;6.42;100.00;-18081.09;5059708;28;20254;-30
2021/04/04 01:31:57;;;;;;;1999.90;999.90;;;;;;;6.63;100.00;-18086.59;5059185;28;20611;-30
2021/04/04 01:34:43;;;;;;;1999.90;999.90;;;;;;;6.15;100.00;-18074.13;5059180;28;20192;-29
2021/04/04 01:37:29;;;;;;;1999.90;999.90;;;;;;;6.39;100.00;-18080.41;5059341;28;20551;-30
2021/04/04 01:40:18;;;;;;;1999.90;999.90;;;;;;;6.61;100.00;-18086.03;5062827;28;20609;-30
2021/04/04 01:43:07;;;;;;;1999.90;999.90;;;;;;;6.11;100.00;-18073.03;5060550;28;20199;-29
2021/04/04 01:45:55;;;;;;;1999.90;999.90;;;;;;;6.39;100.00;-18080.28;5066198;28;20580;-30
2021/04/04 01:48:41;;;;;;;1999.90;999.90;;;;;;;6.52;100.00;-18083.78;5062045;28;20276;-29
2021/04/04 01:51:32;;;;;;;1999.90;999.90;;;;;;;6.64;100.00;-18086.84;5059451;28;20225;-30
2021/04/04 01:54:19;;;;;;;1999.90;999.90;;;;;;;6.72;100.00;-18089.13;5070058;28;20196;-30
2021/04/04 01:57:07;;;;;;;1999.90;999.90;;;;;;;6.59;100.00;-18085.50;5060160;28;20291;-30
2021/04/04 01:59:53;;;;;;;1999.90;999.90;;;;;;;6.69;100.00;-18088.34;5059491;28;20607;-30
2021/04/04 02:02:41;;;;;;;1999.90;999.90;;;;;;;6.69;100.00;-18088.19;5059537;28;20473;-30
2021/04/04 02:05:29;;;;;;;1999.90;999.90;;;;;;;6.74;100.00;-18089.53;5059131;28;20197;-30
2021/04/04 02:08:17;;;;;;;1999.90;999.90;;;;;;;6.71;100.00;-18088.72;5061118;28;20232;-30
2021/04/04 02:11:04;;;;;;;1999.90;999.90;;;;;;;6.66;100.00;-18087.38;5060612;28;20259;-29
2021/04/04 02:13:51;;;;;;;1999.90;999.90;;;;;;;6.59;100.00;-18085.66;5059738;28;20251;-30
2021/04/04 02:16:38;;;;;;;1999.90;999.90;;;;;;;6.72;100.00;-18089.00;5065668;28;20280;-30
2021/04/04 02:19:27;;;;;;;1999.90;999.90;;;;;;;6.66;100.00;-18087.38;5059541;28;20256;-30
2021/04/04 02:22:13;;;;;;;1999.90;999.90;;;;;;;6.61;100.00;-18086.03;5058787;28;20196;-30
2021/04/04 02:24:58;;;;;;;1999.90;999.90;;;;;;;6.70;100.00;-18088.47;5058989;28;20215;-30
2021/04/04 02:27:45;;;;;;;1999.90;999.90;;;;;;;6.74;100.00;-18089.66;5060133;28;20196;-30
2021/04/04 02:30:33;;;;;;;1999.90;999.90;;;;;;;6.71;100.00;-18088.88;5058492;28;20429;-30
2021/04/04 02:33:23;;;;;;;1999.90;999.90;;;;;;;6.30;100.00;-18077.88;5057914;28;20251;-30
2021/04/04 02:36:12;;;;;;;1999.90;999.90;;;;;;;6.45;100.00;-18081.88;5057948;28;20247;-30
2021/04/04 02:39:03;;;;;;;1999.90;999.90;;;;;;;6.59;100.00;-18085.50;5058189;28;20200;-30
2021/04/04 02:41:51;;;;;;;1999.90;999.90;;;;;;;6.55;100.00;-18084.72;5059539;28;20203;-29
2021/04/04 02:44:38;;;;;;;1999.90;999.90;;;;;;;6.63;100.00;-18086.72;5063230;28;20200;-30
2021/04/04 02:47:30;;;;;;;1999.90;999.90;;;;;;;6.72;100.00;-18089.13;5060943;28;20200;-29
2021/04/04 02:50:17;;;;;;;1999.90;999.90;;;;;;;6.51;100.00;-18083.50;5057884;28;20204;-29
2021/04/04 02:53:06;;;;;;;1999.90;999.90;;;;;;;6.40;100.00;-18080.53;5058201;28;20502;-29
2021/04/04 02:55:56;;;;;;;1999.90;999.90;;;;;;;6.57;100.00;-18085.25;5058004;28;20215;-30
2021/04/04 02:58:44;;;;;;;1999.90;999.90;;;;;;;6.55;100.00;-18084.56;5058094;28;20616;-30
2021/04/04 03:01:33;;;;;;;1999.90;999.90;;;;;;;6.30;100.00;-18077.88;5058091;28;20727;-30
2021/04/04 03:04:20;;;;;;;1999.90;999.90;;;;;;;6.00;100.00;-18070.09;5058217;28;20209;-30
2021/04/04 03:07:07;;;;;;;1999.90;999.90;;;;;;;5.95;100.00;-18068.75;5057496;28;20204;-30
2021/04/04 03:09:54;;;;;;;1999.90;999.90;;;;;;;6.08;100.00;-18072.09;5057478;28;20200;-30
2021/04/04 03:12:41;;;;;;;1999.90;999.90;;;;;;;6.31;100.00;-18078.28;5057730;28;20262;-29
2021/04/04 03:15:28;;;;;;;1999.90;999.90;;;;;;;6.07;100.00;-18071.84;5057822;28;20205;-29
2021/04/04 03:18:14;;;;;;;1999.90;999.90;;;;;;;6.04;100.00;-18071.16;5056313;28;20291;-29
2021/04/04 03:21:03;;;;;;;1999.90;999.90;;;;;;;5.87;100.00;-18066.72;5039486;28;20500;-30
2021/04/04 03:23:50;;;;;;;1999.90;999.90;;;;;;;6.05;100.00;-18071.28;5055083;28;20196;-30
2021/04/04 03:26:38;;;;;;;1999.90;999.90;;;;;;;5.65;100.00;-18060.69;5055986;28;20301;-29
2021/04/04 03:29:24;;;;;;;1999.90;999.90;;;;;;;5.81;100.00;-18065.13;5038882;28;20605;-29
2021/04/04 03:32:10;;;;;;;1999.90;999.90;;;;;;;5.84;100.00;-18065.78;5037448;28;20225;-29
2021/04/04 03:34:55;;;;;;;1999.90;999.90;;;;;;;5.94;100.00;-18068.47;5037901;28;20228;-30
2021/04/04 03:37:41;;;;;;;1999.90;999.90;;;;;;;5.96;100.00;-18068.88;5038191;28;20196;-30
2021/04/04 03:40:27;;;;;;;1999.90;999.90;;;;;;;5.64;100.00;-18060.41;5051415;28;20575;-30
2021/04/04 03:43:21;;;;;;;1999.90;999.90;;;;;;;5.79;100.00;-18064.44;5043190;28;20264;-29
2021/04/04 03:46:09;;;;;;;1999.90;999.90;;;;;;;5.80;100.00;-18064.72;5042875;28;20204;-29
2021/04/04 03:48:56;;;;;;;1999.90;999.90;;;;;;;5.68;100.00;-18061.63;5057065;28;20208;-29
2021/04/04 03:51:42;;;;;;;1999.90;999.90;;;;;;;5.80;100.00;-18064.84;5054802;28;20232;-29
2021/04/04 03:54:31;;;;;;;1999.90;999.90;;;;;;;5.63;100.00;-18060.28;5047889;28;20301;-29
2021/04/04 03:57:18;;;;;;;1999.90;999.90;;;;;;;5.95;100.00;-18068.63;5056883;28;20204;-29
2021/04/04 04:00:07;;;;;;;1999.90;999.90;;;;;;;6.17;100.00;-18074.66;5057007;28;20200;-29
2021/04/04 04:02:53;;;;;;;1999.90;999.90;;;;;;;5.81;100.00;-18064.97;5055932;28;20529;-29
2021/04/04 04:05:40;;;;;;;1999.90;999.90;;;;;;;6.01;100.00;-18070.34;5056961;28;20207;-30
2021/04/04 04:08:27;;;;;;;1999.90;999.90;;;;;;;5.84;100.00;-18065.78;5046176;28;20200;-29
2021/04/04 04:11:15;;;;;;;1999.90;999.90;;;;;;;6.13;100.00;-18073.44;5057392;28;20620;-29
2021/04/04 04:14:02;;;;;;;1999.90;999.90;;;;;;;5.99;100.00;-18069.69;5056991;28;20703;-29
2021/04/04 04:16:49;;;;;;;1999.90;999.90;;;;;;;5.99;100.00;-18069.69;5061130;28;20304;-30
2021/04/04 04:19:37;;;;;;;1999.90;999.90;;;;;;;5.91;100.00;-18067.66;5058122;28;20263;-30
2021/04/04 04:22:23;;;;;;;1999.90;999.90;;;;;;;5.86;100.00;-18066.31;5056605;28;20212;-29
2021/04/04 04:25:11;;;;;;;1999.90;999.90;;;;;;;6.20;100.00;-18075.31;5063098;28;20312;-29
2021/04/04 04:27:58;;;;;;;1999.90;999.90;;;;;;;6.51;100.00;-18083.63;5070803;28;20224;-29
2021/04/04 04:30:43;;;;;;;1999.90;999.90;;;;;;;6.02;100.00;-18070.50;5071135;28;20303;-29
2021/04/04 04:33:31;;;;;;;1999.90;999.90;;;;;;;6.32;100.00;-18078.53;5061980;28;20658;-29
2021/04/04 04:36:18;;;;;;;1999.90;999.90;;;;;;;6.37;100.00;-18079.75;5058542;28;20201;-30
2021/04/04 04:39:06;;;;;;;1999.90;999.90;;;;;;;5.91;100.00;-18067.53;5057472;28;20600;-30
2021/04/04 04:41:53;;;;;;;1999.90;999.90;;;;;;;6.30;100.00;-18077.88;5057259;28;20196;-30
2021/04/04 04:44:44;;;;;;;1999.90;999.90;;;;;;;6.43;100.00;-18081.50;5059995;28;20204;-29
2021/04/04 04:47:30;;;;;;;1999.90;999.90;;;;;;;6.34;100.00;-18079.06;5060435;28;20607;-30
2021/04/04 04:50:20;;;;;;;1999.90;999.90;;;;;;;6.15;100.00;-18074.13;5060510;28;20481;-29
2021/04/04 04:53:05;;;;;;;1999.90;999.90;;;;;;;6.25;100.00;-18076.53;5060992;28;20257;-29
2021/04/04 04:55:55;;;;;;;1999.90;999.90;;;;;;;6.28;100.00;-18077.34;5061138;28;20982;-29
2021/04/04 04:58:41;;;;;;;1999.90;999.90;;;;;;;6.67;100.00;-18087.66;5060221;28;20204;-29
2021/04/04 05:01:29;;;;;;;1999.90;999.90;;;;;;;6.71;100.00;-18088.72;5060785;28;20727;-30
2021/04/04 05:04:15;;;;;;;1999.90;999.90;;;;;;;6.69;100.00;-18088.34;5060449;28;20196;-30
2021/04/04 05:07:02;;;;;;;1999.90;999.90;;;;;;;6.23;100.00;-18076.13;5059689;28;20433;-29
2021/04/04 05:09:48;;;;;;;1999.90;999.90;;;;;;;6.28;100.00;-18077.34;5069744;28;20204;-29
2021/04/04 05:12:38;;;;;;;1999.90;999.90;;;;;;;6.36;100.00;-18079.47;5071557;28;20279;-29
2021/04/04 05:15:25;;;;;;;1999.90;999.90;;;;;;;5.91;100.00;-18067.66;5073722;28;20192;-29
2021/04/04 05:18:14;;;;;;;1999.90;999.90;;;;;;;6.19;100.00;-18075.19;5072318;28;20224;-29
2021/04/04 05:21:00;;;;;;;1999.90;999.90;;;;;;;6.00;100.00;-18069.94;5065006;28;20196;-29
2021/04/04 05:23:48;;;;;;;1999.90;999.90;;;;;;;6.08;100.00;-18072.09;5060334;28;20196;-30
2021/04/04 05:26:35;;;;;;;1999.90;999.90;;;;;;;5.91;100.00;-18067.53;5069173;28;20196;-29
2021/04/04 05:29:20;;;;;;;1999.90;999.90;;;;;;;6.27;100.00;-18077.06;5061799;28;20296;-29
2021/04/04 05:32:11;;;;;;;1999.90;999.90;;;;;;;6.29;100.00;-18077.59;5059649;28;20232;-30
2021/04/04 05:34:57;;;;;;;1999.90;999.90;;;;;;;5.99;100.00;-18069.69;5060616;28;20208;-30
2021/04/04 05:37:43;;;;;;;1999.90;999.90;;;;;;;6.23;100.00;-18076.25;5060388;28;20608;-29
2021/04/04 05:40:30;;;;;;;1999.90;999.90;;;;;;;6.23;100.00;-18076.13;5061051;28;20192;-29
2021/04/04 05:43:24;;;;;;;1999.90;999.90;;;;;;;6.31;100.00;-18078.28;5065168;28;20256;-30
2021/04/04 05:46:17;;;;;;;1999.90;999.90;;;;;;;6.39;100.00;-18080.28;5060067;28;20205;-30
2021/04/04 05:49:09;;;;;;;1999.90;999.90;;;;;;;6.47;100.00;-18082.44;5059494;28;20205;-29
2021/04/04 05:52:06;;;;;;;1999.90;999.90;;;;;;;6.67;100.00;-18087.66;5059547;28;20196;-30
2021/04/04 05:55:06;;;;;;;1999.90;999.90;;;;;;;6.92;100.00;-18094.38;5059353;28;20204;-29
2021/04/04 05:57:56;;;;;;;1999.90;999.90;;;;;;;6.14;100.00;-18073.84;5059059;28;20474;-30
2021/04/04 06:00:45;;;;;;;1999.90;999.90;;;;;;;6.40;100.00;-18080.53;5061338;28;20209;-30
2021/04/04 06:03:57;;;;;;;1999.90;999.90;;;;;;;6.36;100.00;-18079.47;5061974;28;20268;-30
2021/04/04 06:07:12;;;;;;;1999.90;999.90;;;;;;;6.19;100.00;-18075.06;5061953;28;20204;-30
2021/04/04 06:10:08;;;;;;;1999.90;999.90;;;;;;;5.87;100.00;-18066.72;5049916;28;20209;-30
2021/04/04 06:13:10;;;;;;;1999.90;999.90;;;;;;;6.15;100.00;-18074.13;5039447;28;20323;-30
2021/04/04 06:16:14;;;;;;;1999.90;999.90;;;;;;;6.11;100.00;-18072.91;5039756;28;20209;-30
2021/04/04 06:19:16;;;;;;;1999.90;999.90;;;;;;;6.21;100.00;-18075.59;5039141;28;20518;-30
2021/04/04 06:22:10;;;;;;;1999.90;999.90;;;;;;;6.11;100.00;-18073.03;5039163;28;20347;-30
2021/04/04 06:25:11;;;;;;;1999.90;999.90;;;;;;;5.83;100.00;-18065.53;5042887;28;20260;-30
2021/04/04 06:28:13;;;;;;;1999.90;999.90;;;;;;;6.60;100.00;-18085.91;5040131;28;20573;-31
2021/04/04 06:31:08;;;;;;;1999.90;999.90;;;;;;;6.59;100.00;-18085.50;5045046;28;20289;-31
2021/04/04 06:34:03;;;;;;;1999.90;999.90;;;;;;;6.17;100.00;-18074.66;5039560;28;20201;-31
2021/04/04 06:36:56;;;;;;;1999.90;999.90;;;;;;;6.23;100.00;-18076.13;5041309;28;20201;-30
2021/04/04 06:40:00;;;;;;;1999.90;999.90;;;;;;;6.73;100.00;-18089.41;5041022;28;20360;-31
2021/04/04 06:43:08;;;;;;;1999.90;999.90;;;;;;;6.20;100.00;-18075.44;5043963;28;20502;-31
2021/04/04 06:46:12;;;;;;;1999.90;999.90;;;;;;;6.82;100.00;-18091.69;5041675;28;20197;-30
2021/04/04 06:49:07;;;;;;;1999.90;999.90;;;;;;;6.63;100.00;-18086.72;5038776;28;20527;-31
2021/04/04 06:52:00;;;;;;;1999.90;999.90;;;;;;;6.84;100.00;-18092.22;5038896;28;20268;-30
2021/04/04 06:54:53;;;;;;;1999.90;999.90;;;;;;;6.92;100.00;-18094.38;5038707;28;20294;-31
2021/04/04 06:58:02;;;;;;;1999.90;999.90;;;;;;;7.21;100.00;-18102.00;5043657;28;20201;-31
2021/04/04 07:00:59;;;;;;;1999.90;999.90;;;;;;;6.86;100.00;-18092.75;5038829;28;20201;-30
2021/04/04 07:03:48;;;;;;;1999.90;999.90;;;;;;;7.05;100.00;-18097.72;5037490;28;20490;-30
2021/04/04 07:07:11;;;;;;;1999.90;999.90;;;;;;;7.02;100.00;-18097.03;5037717;28;20205;-31
2021/04/04 07:10:10;;;;;;;1999.90;999.90;;;;;;;7.22;100.00;-18102.41;5038969;28;20201;-31
2021/04/04 07:13:21;;;;;;;1999.90;999.90;;;;;;;7.61;100.00;-18112.59;5038570;28;20189;-31
2021/04/04 07:16:19;;;;;;;1999.90;999.90;;;;;;;7.54;100.00;-18110.72;5037662;28;20197;-30
2021/04/04 07:19:37;;;;;;;1999.90;999.90;;;;;;;7.55;100.00;-18111.00;5037357;28;20649;-31
2021/04/04 07:22:35;;;;;;;1999.90;999.90;;;;;;;7.18;100.00;-18101.19;5037262;28;20225;-30
2021/04/04 07:25:39;;;;;;;1999.90;999.90;;;;;;;6.97;100.00;-18095.72;5036916;28;20800;-31
2021/04/04 07:28:42;;;;;;;1999.90;999.90;;;;;;;7.11;100.00;-18099.31;5038061;28;20263;-30
2021/04/04 07:31:38;;;;;;;1999.90;999.90;;;;;;;6.89;100.00;-18093.69;5037649;28;20192;-31
2021/04/04 07:34:27;;;;;;;1999.90;999.90;;;;;;;6.63;100.00;-18086.72;5037064;28;20606;-31
2021/04/04 07:37:28;;;;;;;1999.90;999.90;;;;;;;6.66;100.00;-18087.38;5038097;28;20197;-30
2021/04/04 07:40:18;;;;;;;1999.90;999.90;;;;;;;6.48;100.00;-18082.84;5037871;28;20588;-30
2021/04/04 07:43:07;;;;;;;1999.90;999.90;;;;;;;6.99;100.00;-18096.25;5038052;28;20322;-30
2021/04/04 07:46:02;;;;;;;1999.90;999.90;;;;;;;6.87;100.00;-18093.16;5037811;28;20586;-30
2021/04/04 07:49:00;;;;;;;1999.90;999.90;;;;;;;6.77;100.00;-18090.34;5055674;28;20204;-31
2021/04/04 07:51:50;;;;;;;1999.90;999.90;;;;;;;6.47;100.00;-18082.44;5037486;28;20209;-30
2021/04/04 07:54:47;;;;;;;1999.90;999.90;;;;;;;6.58;100.00;-18085.38;5038646;28;20256;-31
2021/04/04 07:57:51;;;;;;;1999.90;999.90;;;;;;;6.79;100.00;-18091.00;5037620;28;20197;-30
2021/04/04 08:00:42;;;;;;;1999.90;999.90;;;;;;;6.80;100.00;-18091.16;5037866;28;20193;-30
2021/04/04 08:03:37;;;;;;;1999.90;999.90;;;;;;;6.74;100.00;-18089.66;5038617;28;20224;-30
2021/04/04 08:06:30;;;;;;;1999.90;999.90;;;;;;;6.68;100.00;-18087.94;5036797;28;20259;-31
2021/04/04 08:09:26;;;;;;;1999.90;999.90;;;;;;;6.74;100.00;-18089.66;5037871;28;20202;-44
2021/04/04 08:12:19;;;;;;;1999.90;999.90;;;;;;;6.78;100.00;-18090.63;5037890;28;20246;-30
2021/04/04 08:15:08;;;;;;;1999.90;999.90;;;;;;;6.84;100.00;-18092.22;5037737;28;20197;-30
2021/04/04 08:17:56;;;;;;;1999.90;999.90;;;;;;;6.95;100.00;-18095.03;5037919;28;20198;-31
2021/04/04 08:20:44;;;;;;;1999.90;999.90;;;;;;;7.66;100.00;-18113.81;5041865;28;20215;-30
2021/04/04 08:23:36;;;;;;;1999.90;999.90;;;;;;;7.29;100.00;-18104.00;5041387;28;20260;-31
2021/04/04 08:26:27;;;;;;;1999.90;999.90;;;;;;;7.77;100.00;-18116.88;5042911;28;20197;-31
2021/04/04 08:29:16;;;;;;;1999.90;999.90;;;;;;;7.00;100.00;-18096.50;5041515;28;20593;-30
2021/04/04 08:32:06;;;;;;;1999.90;999.90;;;;;;;7.32;100.00;-18104.81;5041437;28;20611;-30
2021/04/04 08:34:55;;;;;;;1999.90;999.90;;;;;;;7.35;100.00;-18105.63;5040351;28;20205;-30
2021/04/04 08:37:45;;;;;;;1999.90;999.90;;;;;;;6.86;100.00;-18092.88;5041225;28;20349;-31
2021/04/04 08:40:36;;;;;;;1999.90;999.90;;;;;;;7.01;100.00;-18096.63;5041572;28;20209;-31
2021/04/04 08:43:25;;;;;;;1999.90;999.90;;;;;;;7.00;100.00;-18096.50;5042195;28;20225;-30
2021/04/04 08:46:23;;;;;;;1999.90;999.90;;;;;;;6.89;100.00;-18093.69;5040982;28;20487;-31
2021/04/04 08:49:10;;;;;;;1999.90;999.90;;;;;;;6.71;100.00;-18088.72;5055398;28;20312;-30
2021/04/04 08:52:03;;;;;;;1999.90;999.90;;;;;;;7.05;100.00;-18097.84;5060175;28;20638;-30
2021/04/04 08:54:51;;;;;;;1999.90;999.90;;;;;;;6.47;100.00;-18082.56;5072138;28;20581;-30
2021/04/04 08:57:42;;;;;;;1999.90;999.90;;;;;;;6.59;100.00;-18085.66;5064743;28;20247;-29
2021/04/04 09:00:30;;;;;;;1999.90;999.90;;;;;;;6.19;100.00;-18075.19;5067992;28;20193;-29
2021/04/04 09:03:20;;;;;;;1999.90;999.90;;;;;;;6.65;100.00;-18087.25;5060710;28;20294;-29
2021/04/04 09:06:07;;;;;;;1999.90;999.90;;;;;;;6.77;100.00;-18090.34;5059651;28;20608;-29
2021/04/04 09:08:53;;;;;;;1999.90;999.90;;;;;;;6.65;100.00;-18087.13;5060769;28;20339;-30
2021/04/04 09:11:43;;;;;;;1999.90;999.90;;;;;;;6.51;100.00;-18083.50;5060769;28;20363;-29
2021/04/04 09:14:38;;;;;;;1999.90;999.90;;;;;;;6.68;100.00;-18088.06;5062028;28;20200;-29
2021/04/04 09:17:24;;;;;;;1999.90;999.90;;;;;;;7.38;100.00;-18106.56;5070710;28;20300;-29
2021/04/04 09:20:13;;;;;;;1999.90;999.90;;;;;;;7.47;100.00;-18108.84;5066402;28;20500;-29
2021/04/04 09:23:03;;;;;;;1999.90;999.90;;;;;;;7.80;100.00;-18117.56;5065578;28;20204;-29
2021/04/04 09:25:52;;;;;;;1999.90;999.90;;;;;;;7.47;100.00;-18108.97;5062189;28;20205;-30
2021/04/04 09:28:40;;;;;;;1999.90;999.90;;;;;;;7.04;100.00;-18097.44;5058932;28;20540;-30
2021/04/04 09:31:31;;;;;;;1999.90;999.90;;;;;;;7.12;100.00;-18099.59;5051924;28;20414;-30
2021/04/04 09:34:22;;;;;;;1999.90;999.90;;;;;;;7.33;100.00;-18105.09;5059280;28;20220;-30
2021/04/04 09:37:22;;;;;;;1999.90;999.90;;;;;;;7.84;100.00;-18118.75;5060144;28;20209;-30
2021/04/04 09:40:09;;;;;;;1999.90;999.90;;;;;;;7.93;100.00;-18121.03;5068322;28;20212;-30
2021/04/04 09:43:05;;;;;;;1999.90;999.90;;;;;;;7.55;100.00;-18111.00;5064681;28;20528;-30
2021/04/04 09:46:04;;;;;;;1999.90;999.90;;;;;;;7.76;100.00;-18116.63;5062614;28;20251;-30
2021/04/04 09:48:50;;;;;;;1999.90;999.90;;;;;;;7.91;100.00;-18120.63;5062587;28;20200;-29
2021/04/04 09:51:50;;;;;;;1999.90;999.90;;;;;;;7.23;100.00;-18102.69;5059904;28;20271;-30
2021/04/04 09:54:55;;;;;;;1999.90;999.90;;;;;;;7.29;100.00;-18104.00;5053191;28;21257;-30
2021/04/04 09:57:42;;;;;;;1999.90;999.90;;;;;;;7.45;100.00;-18108.31;5040337;28;20213;-30
2021/04/04 10:00:30;;;;;;;1999.90;999.90;;;;;;;7.17;100.00;-18101.06;5042378;28;20201;-30
2021/04/04 10:03:17;;;;;;;1999.90;999.90;;;;;;;7.46;100.00;-18108.72;5055299;28;20196;-30
2021/04/04 10:06:11;;;;;;;1999.90;999.90;;;;;;;7.93;100.00;-18121.03;5046051;28;20603;-30
2021/04/04 10:09:02;;;;;;;1999.90;999.90;;;;;;;7.70;100.00;-18114.88;5044199;28;20208;-30
2021/04/04 10:12:02;;;;;;;1999.90;999.90;;;;;;;7.72;100.00;-18115.53;5059556;28;20504;-30
2021/04/04 10:15:01;;;;;;;1999.90;999.90;;;;;;;7.83;100.00;-18118.50;5060440;28;20189;-30
2021/04/04 10:17:54;;;;;;;1999.90;999.90;;;;;;;8.17;100.00;-18127.34;5059012;28;20596;-30
2021/04/04 10:20:44;;;;;;;1999.90;999.90;;;;;;;7.66;100.00;-18113.94;5038801;28;20201;-30
2021/04/04 10:23:32;;;;;;;1999.90;999.90;;;;;;;7.40;100.00;-18106.97;5038939;28;20213;-29
2021/04/04 10:26:21;;;;;;;1999.90;999.90;;;;;;;7.41;100.00;-18107.22;5038137;28;20208;-30
2021/04/04 10:29:07;;;;;;;1999.90;999.90;;;;;;;7.29;100.00;-18104.00;5039691;28;20200;-29
2021/04/04 10:31:54;;;;;;;1999.90;999.90;;;;;;;7.91;100.00;-18120.50;5038653;28;20205;-30
2021/04/04 10:34:43;;;;;;;1999.90;999.90;;;;;;;7.35;100.00;-18105.63;5044101;28;20229;-29
2021/04/04 10:37:29;;;;;;;1999.90;999.90;;;;;;;6.91;100.00;-18094.22;5039947;28;20201;-30
2021/04/04 10:40:18;;;;;;;1999.90;999.90;;;;;;;7.64;100.00;-18113.41;5040346;28;20343;-30
2021/04/04 10:43:07;;;;;;;1999.90;999.90;;;;;;;7.88;100.00;-18119.84;5041847;28;20201;-30
2021/04/04 10:46:04;;;;;;;1999.90;999.90;;;;;;;7.69;100.00;-18114.59;5045314;28;20201;-30
2021/04/04 10:48:50;;;;;;;1999.90;999.90;;;;;;;7.80;100.00;-18117.69;5039136;28;20197;-30
2021/04/04 10:51:35;;;;;;;1999.90;999.90;;;;;;;7.60;100.00;-18112.31;5039055;28;20260;-30
2021/04/04 10:54:22;;;;;;;1999.90;999.90;;;;;;;7.45;100.00;-18108.44;5038851;28;20228;-30
2021/04/04 10:57:09;;;;;;;1999.90;999.90;;;;;;;7.90;100.00;-18120.22;5042708;28;20197;-30
2021/04/04 10:59:59;;;;;;;1999.90;999.90;;;;;;;8.07;100.00;-18124.66;5053764;28;20262;-30
2021/04/04 11:02:48;;;;;;;1999.90;999.90;;;;;;;7.70;100.00;-18115.00;5058077;28;20290;-29
2021/04/04 11:05:34;;;;;;;1999.90;999.90;;;;;;;7.24;100.00;-18102.81;5059023;28;20280;-30
2021/04/04 11:08:21;;;;;;;1999.90;999.90;;;;;;;7.38;100.00;-18106.44;5068901;28;20220;-29
2021/04/04 11:11:08;;;;;;;1999.90;999.90;;;;;;;7.69;100.00;-18114.75;5060357;28;20189;-30
2021/04/04 11:14:01;;;;;;;1999.90;999.90;;;;;;;7.97;100.00;-18121.97;5069331;28;20228;-30
2021/04/04 11:16:49;;;;;;;1999.90;999.90;;;;;;;8.24;100.00;-18129.22;5060342;28;20201;-30
2021/04/04 11:19:36;;;;;;;1999.90;999.90;;;;;;;7.87;100.00;-18119.56;5057529;28;20235;-30
2021/04/04 11:22:23;;;;;;;1999.90;999.90;;;;;;;8.13;100.00;-18126.25;5055734;28;20343;-30
2021/04/04 11:25:17;;;;;;;1999.90;999.90;;;;;;;7.24;100.00;-18102.81;5053109;28;20205;-30
2021/04/04 11:28:15;;;;;;;1999.90;999.90;;;;;;;7.90;100.00;-18120.38;5054787;28;20212;-30
2021/04/04 11:31:02;;;;;;;1999.90;999.90;;;;;;;7.51;100.00;-18110.03;5052311;28;20209;-30
2021/04/04 11:33:47;;;;;;;1999.90;999.90;;;;;;;7.32;100.00;-18104.97;5056759;28;20304;-30
2021/04/04 11:36:37;;;;;;;1999.90;999.90;;;;;;;7.98;100.00;-18122.25;5058567;28;20279;-30
2021/04/04 11:39:23;;;;;;;1999.90;999.90;;;;;;;8.38;100.00;-18132.84;5055219;28;20208;-29
2021/04/04 11:42:19;;;;;;;1999.90;999.90;;;;;;;8.46;100.00;-18134.97;5048980;28;20260;-30
2021/04/04 11:45:06;;;;;;;1999.90;999.90;;;;;;;8.55;100.00;-18137.38;5049447;28;20200;-30
2021/04/04 11:47:56;;;;;;;1999.90;999.90;;;;;;;7.43;100.00;-18107.91;5047942;28;20347;-30
2021/04/04 11:50:44;;;;;;;1999.90;999.90;;;;;;;7.33;100.00;-18105.22;5047749;28;20585;-30
2021/04/04 11:53:42;;;;;;;1999.90;999.90;;;;;;;7.09;100.00;-18098.78;5045530;28;20229;-31
2021/04/04 11:56:46;;;;;;;1999.90;999.90;;;;;;;7.37;100.00;-18106.16;5038106;28;20236;-29
2021/04/04 11:59:33;;;;;;;1999.90;999.90;;;;;;;7.11;100.00;-18099.47;5045912;28;20209;-29
2021/04/04 12:02:23;;;;;;;1999.90;999.90;;;;;;;7.90;100.00;-18120.38;5044549;28;20222;-30
2021/04/04 12:05:14;;;;;;;1999.90;999.90;;;;;;;7.70;100.00;-18115.00;5045396;28;20604;-30
2021/04/04 12:08:00;;;;;;;1999.90;999.90;;;;;;;7.01;100.00;-18096.78;5046111;28;20196;-30
2021/04/04 12:10:46;;;;;;;1999.90;999.90;;;;;;;7.58;100.00;-18111.94;5046801;28;20193;-30
2021/04/04 12:13:34;;;;;;;1999.90;999.90;;;;;;;7.60;100.00;-18112.31;5045200;28;20244;-29
2021/04/04 12:16:20;;;;;;;1999.90;999.90;;;;;;;7.99;100.00;-18122.50;5052180;28;20193;-30
2021/04/04 12:19:07;;;;;;;1999.90;999.90;;;;;;;8.35;100.00;-18132.16;5057510;28;20232;-29
2021/04/04 12:21:56;;;;;;;1999.90;999.90;;;;;;;8.26;100.00;-18129.75;5057795;28;20468;-30
2021/04/04 12:24:45;;;;;;;1999.90;999.90;;;;;;;8.30;100.00;-18130.81;5059254;28;20200;-29
2021/04/04 12:27:31;;;;;;;1999.90;999.90;;;;;;;8.40;100.00;-18133.50;5037254;28;20203;-29
2021/04/04 12:30:28;;;;;;;1999.90;999.90;;;;;;;8.40;100.00;-18133.50;5040322;28;20212;-30